sensor_id;sensor_type;location;lat;lon;timestamp;P1;durP1;ratioP1;P2;durP2;ratioP2
22515;SDS011;11424;48.860;9.624;2023-05-10T00:01:59;0.7;;;0.7;;
22515;SDS011;11424;48.860;9.624;2023-05-10T00:06:59;0.4;;;0.4;;
22515;SDS011;11424;48.860;9.624;2023-05-10T00:11:59;0.3;;;0.3;;
22515;SDS011;11424;48.860;9.624;2023-05-10T00:16:59;0.3;;;0.5;;
22515;SDS011;11424;48.860;9.624;2023-05-10T00:21:59;0.3;;;0.3;;
22515;SDS011;11424;48.860;9.624;2023-05-10T00:26:59;0.3;;;0.3;;
22515;SDS011;11424;48.860;9.624;2023-05-10T00:31:59;0.5;;;0.5;;
22515;SDS011;11424;48.860;9.624;2023-05-10T00:36:59;0.4;;;0.4;;
22515;SDS011;11424;48.860;9.624;2023-05-10T00:41:59;0.6;;;0.7;;
22515;SDS011;11424;48.860;9.624;2023-05-10T00:46:59;0.6;;;0.6;;
22515;SDS011;11424;48.860;9.624;2023-05-10T00:51:59;0.4;;;0.5;;
22515;SDS011;11424;48.860;9.624;2023-05-10T00:56:59;0.4;;;0.4;;
22515;SDS011;11424;48.860;9.624;2023-05-10T01:01:59;0.4;;;0.5;;
22515;SDS011;11424;48.860;9.624;2023-05-10T01:06:59;0.4;;;0.5;;
22515;SDS011;11424;48.860;9.624;2023-05-10T01:11:59;0.3;;;0.3;;
22515;SDS011;11424;48.860;9.624;2023-05-10T01:16:59;0.3;;;0.4;;
22515;SDS011;11424;48.860;9.624;2023-05-10T01:22:02;0.5;;;0.5;;
22515;SDS011;11424;48.860;9.624;2023-05-10T01:27:02;0.4;;;0.4;;
22515;SDS011;11424;48.860;9.624;2023-05-10T01:32:02;0.3;;;0.3;;
22515;SDS011;11424;48.860;9.624;2023-05-10T01:37:02;0.4;;;0.4;;
22515;SDS011;11424;48.860;9.624;2023-05-10T01:42:01;0.4;;;0.8;;
22515;SDS011;11424;48.860;9.624;2023-05-10T01:47:01;0.4;;;0.4;;
22515;SDS011;11424;48.860;9.624;2023-05-10T01:52:00;0.5;;;0.5;;
22515;SDS011;11424;48.860;9.624;2023-05-10T01:57:00;0.6;;;0.6;;
22515;SDS011;11424;48.860;9.624;2023-05-10T02:01:59;0.9;;;0.9;;
22515;SDS011;11424;48.860;9.624;2023-05-10T02:06:59;0.8;;;0.8;;
22515;SDS011;11424;48.860;9.624;2023-05-10T02:12:00;0.9;;;1;;
22515;SDS011;11424;48.860;9.624;2023-05-10T02:16:59;0.8;;;0.8;;
22515;SDS011;11424;48.860;9.624;2023-05-10T02:21:59;0.7;;;0.7;;
22515;SDS011;11424;48.860;9.624;2023-05-10T02:26:59;1;;;1;;
22515;SDS011;11424;48.860;9.624;2023-05-10T02:31:59;1;;;1;;
22515;SDS011;11424;48.860;9.624;2023-05-10T02:36:59;1;;;1;;
22515;SDS011;11424;48.860;9.624;2023-05-10T02:41:59;0.9;;;0.9;;
22515;SDS011;11424;48.860;9.624;2023-05-10T02:46:59;0.9;;;0.9;;
22515;SDS011;11424;48.860;9.624;2023-05-10T02:52:00;1.1;;;1.1;;
22515;SDS011;11424;48.860;9.624;2023-05-10T02:57:00;1;;;1;;
22515;SDS011;11424;48.860;9.624;2023-05-10T03:01:59;0.9;;;0.9;;
22515;SDS011;11424;48.860;9.624;2023-05-10T03:06:59;1.1;;;1.2;;
22515;SDS011;11424;48.860;9.624;2023-05-10T03:12:00;0.9;;;0.9;;
22515;SDS011;11424;48.860;9.624;2023-05-10T03:17:00;0.8;;;0.8;;
22515;SDS011;11424;48.860;9.624;2023-05-10T03:22:02;0.9;;;0.9;;
22515;SDS011;11424;48.860;9.624;2023-05-10T03:26:59;1;;;1;;
22515;SDS011;11424;48.860;9.624;2023-05-10T03:31:59;1.1;;;1.5;;
22515;SDS011;11424;48.860;9.624;2023-05-10T03:36:59;0.9;;;0.9;;
22515;SDS011;11424;48.860;9.624;2023-05-10T03:41:59;1.1;;;1.1;;
22515;SDS011;11424;48.860;9.624;2023-05-10T03:47:00;1.1;;;1.2;;
22515;SDS011;11424;48.860;9.624;2023-05-10T03:51:59;0.9;;;0.9;;
22515;SDS011;11424;48.860;9.624;2023-05-10T03:57:00;0.9;;;0.9;;
22515;SDS011;11424;48.860;9.624;2023-05-10T04:01:59;1;;;1;;
22515;SDS011;11424;48.860;9.624;2023-05-10T04:06:59;1;;;1;;
22515;SDS011;11424;48.860;9.624;2023-05-10T04:11:59;1.2;;;1.2;;
22515;SDS011;11424;48.860;9.624;2023-05-10T04:16:59;1.2;;;1.2;;
22515;SDS011;11424;48.860;9.624;2023-05-10T04:21:59;1.1;;;1.1;;
22515;SDS011;11424;48.860;9.624;2023-05-10T04:26:59;1.3;;;1.4;;
22515;SDS011;11424;48.860;9.624;2023-05-10T04:31:59;1.1;;;1.1;;
22515;SDS011;11424;48.860;9.624;2023-05-10T04:37:00;1.6;;;1.7;;
22515;SDS011;11424;48.860;9.624;2023-05-10T04:41:59;1.3;;;1.4;;
22515;SDS011;11424;48.860;9.624;2023-05-10T04:47:00;1;;;1;;
22515;SDS011;11424;48.860;9.624;2023-05-10T04:52:00;1.2;;;1.3;;
22515;SDS011;11424;48.860;9.624;2023-05-10T04:56:59;1.2;;;1.2;;
22515;SDS011;11424;48.860;9.624;2023-05-10T05:02:00;1.1;;;1.2;;
22515;SDS011;11424;48.860;9.624;2023-05-10T05:06:59;1.1;;;1.1;;
22515;SDS011;11424;48.860;9.624;2023-05-10T05:12:00;1;;;1;;
22515;SDS011;11424;48.860;9.624;2023-05-10T05:17:00;1.1;;;1.1;;
22515;SDS011;11424;48.860;9.624;2023-05-10T05:21:59;1;;;1;;
22515;SDS011;11424;48.860;9.624;2023-05-10T05:27:00;1.1;;;1.1;;
22515;SDS011;11424;48.860;9.624;2023-05-10T05:32:00;1;;;1.1;;
22515;SDS011;11424;48.860;9.624;2023-05-10T05:37:00;1.5;;;1.6;;
22515;SDS011;11424;48.860;9.624;2023-05-10T05:42:00;1.3;;;1.4;;
22515;SDS011;11424;48.860;9.624;2023-05-10T05:47:00;0.9;;;1;;
22515;SDS011;11424;48.860;9.624;2023-05-10T05:52:00;0.9;;;0.9;;
22515;SDS011;11424;48.860;9.624;2023-05-10T05:57:00;0.9;;;0.9;;
22515;SDS011;11424;48.860;9.624;2023-05-10T06:02:00;1.3;;;1.4;;
22515;SDS011;11424;48.860;9.624;2023-05-10T06:07:00;1.3;;;1.4;;
22515;SDS011;11424;48.860;9.624;2023-05-10T06:12:00;1.5;;;1.6;;
22515;SDS011;11424;48.860;9.624;2023-05-10T06:17:00;1.1;;;1.1;;
22515;SDS011;11424;48.860;9.624;2023-05-10T06:22:00;1.7;;;1.8;;
22515;SDS011;11424;48.860;9.624;2023-05-10T06:27:00;1.4;;;1.5;;
22515;SDS011;11424;48.860;9.624;2023-05-10T06:32:00;1.5;;;1.6;;
22515;SDS011;11424;48.860;9.624;2023-05-10T06:37:00;1.4;;;1.5;;
22515;SDS011;11424;48.860;9.624;2023-05-10T06:42:00;1.2;;;1.3;;
22515;SDS011;11424;48.860;9.624;2023-05-10T06:47:00;1.7;;;1.8;;
22515;SDS011;11424;48.860;9.624;2023-05-10T06:52:00;1.7;;;1.8;;
22515;SDS011;11424;48.860;9.624;2023-05-10T06:57:00;1.5;;;1.6;;
22515;SDS011;11424;48.860;9.624;2023-05-10T07:02:00;1.9;;;2;;
22515;SDS011;11424;48.860;9.624;2023-05-10T07:07:00;1.7;;;1.8;;
22515;SDS011;11424;48.860;9.624;2023-05-10T07:12:00;1.5;;;1.6;;
22515;SDS011;11424;48.860;9.624;2023-05-10T07:17:00;1.6;;;1.7;;
22515;SDS011;11424;48.860;9.624;2023-05-10T07:22:00;1.5;;;1.6;;
22515;SDS011;11424;48.860;9.624;2023-05-10T07:27:00;2.3;;;2.5;;
22515;SDS011;11424;48.860;9.624;2023-05-10T07:32:00;1.5;;;1.9;;
22515;SDS011;11424;48.860;9.624;2023-05-10T07:37:00;2.1;;;2.3;;
22515;SDS011;11424;48.860;9.624;2023-05-10T07:42:00;1.7;;;1.8;;
22515;SDS011;11424;48.860;9.624;2023-05-10T07:47:00;1.8;;;1.9;;
22515;SDS011;11424;48.860;9.624;2023-05-10T07:52:00;1.5;;;1.6;;
22515;SDS011;11424;48.860;9.624;2023-05-10T07:57:00;1.2;;;1.3;;
22515;SDS011;11424;48.860;9.624;2023-05-10T08:02:00;0.9;;;0.9;;
22515;SDS011;11424;48.860;9.624;2023-05-10T08:07:00;1.4;;;1.5;;
22515;SDS011;11424;48.860;9.624;2023-05-10T08:12:00;1.1;;;1.2;;
22515;SDS011;11424;48.860;9.624;2023-05-10T08:17:00;0.9;;;0.9;;
22515;SDS011;11424;48.860;9.624;2023-05-10T08:22:00;0.7;;;0.7;;
22515;SDS011;11424;48.860;9.624;2023-05-10T08:27:00;0.9;;;0.9;;
22515;SDS011;11424;48.860;9.624;2023-05-10T08:32:00;0.9;;;0.9;;
22515;SDS011;11424;48.860;9.624;2023-05-10T08:37:00;1;;;1;;
22515;SDS011;11424;48.860;9.624;2023-05-10T08:42:01;0.9;;;0.9;;
22515;SDS011;11424;48.860;9.624;2023-05-10T08:47:00;0.9;;;0.9;;
22515;SDS011;11424;48.860;9.624;2023-05-10T08:52:02;0.7;;;0.7;;
22515;SDS011;11424;48.860;9.624;2023-05-10T08:57:00;0.9;;;0.9;;
22515;SDS011;11424;48.860;9.624;2023-05-10T09:02:00;0.8;;;0.8;;
22515;SDS011;11424;48.860;9.624;2023-05-10T09:07:00;0.8;;;0.8;;
22515;SDS011;11424;48.860;9.624;2023-05-10T09:12:00;1;;;1.1;;
22515;SDS011;11424;48.860;9.624;2023-05-10T09:17:00;0.9;;;1;;
22515;SDS011;11424;48.860;9.624;2023-05-10T09:22:00;0.8;;;0.8;;
22515;SDS011;11424;48.860;9.624;2023-05-10T09:27:01;0.8;;;1;;
22515;SDS011;11424;48.860;9.624;2023-05-10T09:32:00;0.8;;;0.8;;
22515;SDS011;11424;48.860;9.624;2023-05-10T09:37:01;0.8;;;0.8;;
22515;SDS011;11424;48.860;9.624;2023-05-10T09:42:01;0.6;;;0.6;;
22515;SDS011;11424;48.860;9.624;2023-05-10T09:47:00;0.8;;;0.8;;
22515;SDS011;11424;48.860;9.624;2023-05-10T09:52:01;0.7;;;0.7;;
22515;SDS011;11424;48.860;9.624;2023-05-10T09:57:00;0.4;;;0.4;;
22515;SDS011;11424;48.860;9.624;2023-05-10T10:02:00;0.8;;;1.2;;
22515;SDS011;11424;48.860;9.624;2023-05-10T10:07:00;0.7;;;0.7;;
22515;SDS011;11424;48.860;9.624;2023-05-10T10:12:00;0.7;;;0.7;;
22515;SDS011;11424;48.860;9.624;2023-05-10T10:17:00;0.8;;;0.8;;
22515;SDS011;11424;48.860;9.624;2023-05-10T10:22:00;0.8;;;0.9;;
22515;SDS011;11424;48.860;9.624;2023-05-10T10:27:01;0.7;;;0.7;;
22515;SDS011;11424;48.860;9.624;2023-05-10T10:32:02;0.8;;;0.9;;
22515;SDS011;11424;48.860;9.624;2023-05-10T10:37:04;0.7;;;0.7;;
22515;SDS011;11424;48.860;9.624;2023-05-10T10:42:00;0.7;;;0.8;;
22515;SDS011;11424;48.860;9.624;2023-05-10T10:47:01;0.5;;;0.5;;
22515;SDS011;11424;48.860;9.624;2023-05-10T10:52:34;0.7;;;0.7;;
22515;SDS011;11424;48.860;9.624;2023-05-10T10:57:10;0.8;;;0.8;;
22515;SDS011;11424;48.860;9.624;2023-05-10T11:02:00;0.6;;;0.6;;
22515;SDS011;11424;48.860;9.624;2023-05-10T11:07:15;0.8;;;0.8;;
22515;SDS011;11424;48.860;9.624;2023-05-10T11:12:07;0.7;;;1;;
22515;SDS011;11424;48.860;9.624;2023-05-10T11:17:00;0.7;;;0.7;;
22515;SDS011;11424;48.860;9.624;2023-05-10T11:22:15;0.7;;;0.7;;
22515;SDS011;11424;48.860;9.624;2023-05-10T11:27:00;0.7;;;0.7;;
22515;SDS011;11424;48.860;9.624;2023-05-10T11:32:00;0.6;;;0.6;;
22515;SDS011;11424;48.860;9.624;2023-05-10T11:37:00;0.7;;;0.7;;
22515;SDS011;11424;48.860;9.624;2023-05-10T11:42:00;0.9;;;1.1;;
22515;SDS011;11424;48.860;9.624;2023-05-10T11:47:00;0.6;;;0.6;;
22515;SDS011;11424;48.860;9.624;2023-05-10T11:52:03;0.7;;;0.7;;
22515;SDS011;11424;48.860;9.624;2023-05-10T11:57:00;0.7;;;1;;
22515;SDS011;11424;48.860;9.624;2023-05-10T12:02:00;0.7;;;0.7;;
22515;SDS011;11424;48.860;9.624;2023-05-10T12:07:00;0.8;;;0.8;;
22515;SDS011;11424;48.860;9.624;2023-05-10T12:12:00;0.6;;;0.6;;
22515;SDS011;11424;48.860;9.624;2023-05-10T12:17:00;1;;;1;;
22515;SDS011;11424;48.860;9.624;2023-05-10T12:22:03;1.1;;;1.1;;
22515;SDS011;11424;48.860;9.624;2023-05-10T12:27:04;0.9;;;1.2;;
22515;SDS011;11424;48.860;9.624;2023-05-10T12:32:00;0.8;;;0.8;;
22515;SDS011;11424;48.860;9.624;2023-05-10T12:37:00;1;;;2;;
22515;SDS011;11424;48.860;9.624;2023-05-10T12:42:00;0.8;;;0.8;;
22515;SDS011;11424;48.860;9.624;2023-05-10T12:47:00;0.6;;;0.6;;
22515;SDS011;11424;48.860;9.624;2023-05-10T12:52:00;0.8;;;0.8;;
22515;SDS011;11424;48.860;9.624;2023-05-10T12:57:00;1;;;1.3;;
22515;SDS011;11424;48.860;9.624;2023-05-10T13:02:00;1;;;1.1;;
22515;SDS011;11424;48.860;9.624;2023-05-10T13:07:00;0.8;;;0.8;;
22515;SDS011;11424;48.860;9.624;2023-05-10T13:12:00;0.9;;;1.2;;
22515;SDS011;11424;48.860;9.624;2023-05-10T13:17:00;0.9;;;1.4;;
22515;SDS011;11424;48.860;9.624;2023-05-10T13:22:00;1;;;1.1;;
22515;SDS011;11424;48.860;9.624;2023-05-10T13:27:00;1;;;1;;
22515;SDS011;11424;48.860;9.624;2023-05-10T13:32:00;1;;;1.1;;
22515;SDS011;11424;48.860;9.624;2023-05-10T13:37:00;0.8;;;0.8;;
22515;SDS011;11424;48.860;9.624;2023-05-10T13:42:00;1;;;1.5;;
22515;SDS011;11424;48.860;9.624;2023-05-10T13:47:00;0.8;;;0.8;;
22515;SDS011;11424;48.860;9.624;2023-05-10T13:52:00;0.8;;;0.8;;
22515;SDS011;11424;48.860;9.624;2023-05-10T13:57:00;0.6;;;0.6;;
22515;SDS011;11424;48.860;9.624;2023-05-10T14:02:00;0.6;;;0.6;;
22515;SDS011;11424;48.860;9.624;2023-05-10T14:07:00;0.7;;;0.7;;
22515;SDS011;11424;48.860;9.624;2023-05-10T14:12:00;0.8;;;0.8;;
22515;SDS011;11424;48.860;9.624;2023-05-10T14:17:00;0.7;;;0.7;;
22515;SDS011;11424;48.860;9.624;2023-05-10T14:22:00;0.6;;;0.6;;
22515;SDS011;11424;48.860;9.624;2023-05-10T14:27:00;0.7;;;1.1;;
22515;SDS011;11424;48.860;9.624;2023-05-10T14:32:00;0.6;;;0.7;;
22515;SDS011;11424;48.860;9.624;2023-05-10T14:37:00;0.8;;;0.8;;
22515;SDS011;11424;48.860;9.624;2023-05-10T14:42:00;0.6;;;1.5;;
22515;SDS011;11424;48.860;9.624;2023-05-10T14:47:00;0.7;;;0.9;;
22515;SDS011;11424;48.860;9.624;2023-05-10T14:52:00;0.9;;;1;;
22515;SDS011;11424;48.860;9.624;2023-05-10T14:57:00;0.7;;;0.7;;
22515;SDS011;11424;48.860;9.624;2023-05-10T15:02:00;1;;;1.1;;
22515;SDS011;11424;48.860;9.624;2023-05-10T15:07:00;1;;;1;;
22515;SDS011;11424;48.860;9.624;2023-05-10T15:12:00;0.9;;;1;;
22515;SDS011;11424;48.860;9.624;2023-05-10T15:17:00;0.8;;;0.8;;
22515;SDS011;11424;48.860;9.624;2023-05-10T15:22:00;0.9;;;0.9;;
22515;SDS011;11424;48.860;9.624;2023-05-10T15:27:00;0.8;;;1.1;;
22515;SDS011;11424;48.860;9.624;2023-05-10T15:32:00;0.9;;;0.9;;
22515;SDS011;11424;48.860;9.624;2023-05-10T15:37:00;0.8;;;0.8;;
22515;SDS011;11424;48.860;9.624;2023-05-10T15:42:00;1;;;1.1;;
22515;SDS011;11424;48.860;9.624;2023-05-10T15:47:00;0.7;;;0.7;;
22515;SDS011;11424;48.860;9.624;2023-05-10T15:52:00;0.6;;;1.5;;
22515;SDS011;11424;48.860;9.624;2023-05-10T15:57:00;0.6;;;0.7;;
22515;SDS011;11424;48.860;9.624;2023-05-10T16:02:00;0.6;;;0.7;;
22515;SDS011;11424;48.860;9.624;2023-05-10T16:07:01;0.6;;;0.6;;
22515;SDS011;11424;48.860;9.624;2023-05-10T16:12:00;0.6;;;0.6;;
22515;SDS011;11424;48.860;9.624;2023-05-10T16:17:00;0.8;;;0.8;;
22515;SDS011;11424;48.860;9.624;2023-05-10T16:22:00;0.9;;;0.9;;
22515;SDS011;11424;48.860;9.624;2023-05-10T16:27:00;1;;;1;;
22515;SDS011;11424;48.860;9.624;2023-05-10T16:32:00;0.9;;;1;;
22515;SDS011;11424;48.860;9.624;2023-05-10T16:37:00;0.6;;;0.6;;
22515;SDS011;11424;48.860;9.624;2023-05-10T16:42:00;0.6;;;0.6;;
22515;SDS011;11424;48.860;9.624;2023-05-10T16:47:00;0.6;;;0.6;;
22515;SDS011;11424;48.860;9.624;2023-05-10T16:52:01;0.5;;;0.5;;
22515;SDS011;11424;48.860;9.624;2023-05-10T16:57:00;0.7;;;0.9;;
22515;SDS011;11424;48.860;9.624;2023-05-10T17:02:01;0.6;;;0.6;;
22515;SDS011;11424;48.860;9.624;2023-05-10T17:07:00;0.6;;;0.6;;
22515;SDS011;11424;48.860;9.624;2023-05-10T17:12:01;0.9;;;1;;
22515;SDS011;11424;48.860;9.624;2023-05-10T17:17:00;0.9;;;0.9;;
22515;SDS011;11424;48.860;9.624;2023-05-10T17:22:00;0.9;;;1;;
22515;SDS011;11424;48.860;9.624;2023-05-10T17:27:00;1;;;1;;
22515;SDS011;11424;48.860;9.624;2023-05-10T17:32:01;1;;;1;;
22515;SDS011;11424;48.860;9.624;2023-05-10T17:37:00;7.8;;;11.7;;
22515;SDS011;11424;48.860;9.624;2023-05-10T17:42:00;6.3;;;11;;
22515;SDS011;11424;48.860;9.624;2023-05-10T17:47:00;4.1;;;5.6;;
22515;SDS011;11424;48.860;9.624;2023-05-10T17:52:00;1.8;;;2.1;;
22515;SDS011;11424;48.860;9.624;2023-05-10T17:57:00;1.3;;;1.4;;
22515;SDS011;11424;48.860;9.624;2023-05-10T18:02:01;1.1;;;1.2;;
22515;SDS011;11424;48.860;9.624;2023-05-10T18:07:00;1;;;1.1;;
22515;SDS011;11424;48.860;9.624;2023-05-10T18:12:01;1;;;1.1;;
22515;SDS011;11424;48.860;9.624;2023-05-10T18:17:00;0.8;;;0.8;;
22515;SDS011;11424;48.860;9.624;2023-05-10T18:22:00;1.2;;;1.2;;
22515;SDS011;11424;48.860;9.624;2023-05-10T18:27:00;1;;;1;;
22515;SDS011;11424;48.860;9.624;2023-05-10T18:32:00;1.1;;;1.1;;
22515;SDS011;11424;48.860;9.624;2023-05-10T18:37:00;1.2;;;1.3;;
22515;SDS011;11424;48.860;9.624;2023-05-10T18:42:00;1;;;1;;
22515;SDS011;11424;48.860;9.624;2023-05-10T18:47:00;1.1;;;1.2;;
22515;SDS011;11424;48.860;9.624;2023-05-10T18:52:00;1.2;;;1.3;;
22515;SDS011;11424;48.860;9.624;2023-05-10T18:57:00;1.3;;;1.4;;
22515;SDS011;11424;48.860;9.624;2023-05-10T19:02:00;1.2;;;1.3;;
22515;SDS011;11424;48.860;9.624;2023-05-10T19:07:01;1.1;;;1.2;;
22515;SDS011;11424;48.860;9.624;2023-05-10T19:12:01;1.2;;;1.3;;
22515;SDS011;11424;48.860;9.624;2023-05-10T19:17:00;1.2;;;1.3;;
22515;SDS011;11424;48.860;9.624;2023-05-10T19:22:00;1.7;;;3;;
22515;SDS011;11424;48.860;9.624;2023-05-10T19:27:00;1.3;;;1.4;;
22515;SDS011;11424;48.860;9.624;2023-05-10T19:32:00;1.2;;;1.3;;
22515;SDS011;11424;48.860;9.624;2023-05-10T19:37:00;1.3;;;1.4;;
22515;SDS011;11424;48.860;9.624;2023-05-10T19:42:01;1.3;;;1.4;;
22515;SDS011;11424;48.860;9.624;2023-05-10T19:47:00;1.3;;;1.4;;
22515;SDS011;11424;48.860;9.624;2023-05-10T19:52:01;1;;;1.1;;
22515;SDS011;11424;48.860;9.624;2023-05-10T19:57:01;1;;;1.1;;
22515;SDS011;11424;48.860;9.624;2023-05-10T20:02:00;1.1;;;1.2;;
22515;SDS011;11424;48.860;9.624;2023-05-10T20:07:01;1.2;;;1.2;;
22515;SDS011;11424;48.860;9.624;2023-05-10T20:12:00;1.2;;;1.3;;
22515;SDS011;11424;48.860;9.624;2023-05-10T20:17:01;1.1;;;1.2;;
22515;SDS011;11424;48.860;9.624;2023-05-10T20:22:01;1.2;;;1.3;;
22515;SDS011;11424;48.860;9.624;2023-05-10T20:27:01;1.2;;;1.3;;
22515;SDS011;11424;48.860;9.624;2023-05-10T20:32:01;1.3;;;1.4;;
22515;SDS011;11424;48.860;9.624;2023-05-10T20:37:01;1.8;;;2.7;;
22515;SDS011;11424;48.860;9.624;2023-05-10T20:42:01;3.9;;;8.1;;
22515;SDS011;11424;48.860;9.624;2023-05-10T20:47:01;3.8;;;5.5;;
22515;SDS011;11424;48.860;9.624;2023-05-10T20:52:01;5.3;;;6.7;;
22515;SDS011;11424;48.860;9.624;2023-05-10T20:57:01;4.9;;;6.2;;
22515;SDS011;11424;48.860;9.624;2023-05-10T21:02:01;5.1;;;6.1;;
22515;SDS011;11424;48.860;9.624;2023-05-10T21:07:01;4.4;;;5.6;;
22515;SDS011;11424;48.860;9.624;2023-05-10T21:12:01;2.2;;;2.7;;
22515;SDS011;11424;48.860;9.624;2023-05-10T21:17:01;1.4;;;1.5;;
22515;SDS011;11424;48.860;9.624;2023-05-10T21:22:01;1.3;;;1.4;;
22515;SDS011;11424;48.860;9.624;2023-05-10T21:27:01;1.5;;;1.6;;
22515;SDS011;11424;48.860;9.624;2023-05-10T21:32:01;1.4;;;1.5;;
22515;SDS011;11424;48.860;9.624;2023-05-10T21:37:01;2.8;;;3.2;;
22515;SDS011;11424;48.860;9.624;2023-05-10T21:42:01;2.8;;;3.1;;
22515;SDS011;11424;48.860;9.624;2023-05-10T21:47:01;1.7;;;1.8;;
22515;SDS011;11424;48.860;9.624;2023-05-10T21:52:01;1.2;;;1.3;;
22515;SDS011;11424;48.860;9.624;2023-05-10T21:57:01;1;;;1.3;;
22515;SDS011;11424;48.860;9.624;2023-05-10T22:02:01;0.8;;;0.8;;
22515;SDS011;11424;48.860;9.624;2023-05-10T22:07:01;1;;;1;;
22515;SDS011;11424;48.860;9.624;2023-05-10T22:12:01;0.9;;;0.9;;
22515;SDS011;11424;48.860;9.624;2023-05-10T22:17:01;1;;;1;;
22515;SDS011;11424;48.860;9.624;2023-05-10T22:22:01;1.1;;;1.2;;
22515;SDS011;11424;48.860;9.624;2023-05-10T22:27:01;0.8;;;0.8;;
22515;SDS011;11424;48.860;9.624;2023-05-10T22:32:01;1;;;1;;
22515;SDS011;11424;48.860;9.624;2023-05-10T22:37:01;1;;;1;;
22515;SDS011;11424;48.860;9.624;2023-05-10T22:42:01;1;;;1;;
22515;SDS011;11424;48.860;9.624;2023-05-10T22:47:01;0.9;;;1;;
22515;SDS011;11424;48.860;9.624;2023-05-10T22:52:01;1;;;1;;
22515;SDS011;11424;48.860;9.624;2023-05-10T22:57:01;1;;;1;;
22515;SDS011;11424;48.860;9.624;2023-05-10T23:02:01;0.9;;;0.9;;
22515;SDS011;11424;48.860;9.624;2023-05-10T23:07:01;0.7;;;0.7;;
22515;SDS011;11424;48.860;9.624;2023-05-10T23:12:01;1;;;1;;
22515;SDS011;11424;48.860;9.624;2023-05-10T23:17:01;0.9;;;0.9;;
22515;SDS011;11424;48.860;9.624;2023-05-10T23:22:01;0.9;;;0.9;;
22515;SDS011;11424;48.860;9.624;2023-05-10T23:27:01;1;;;1;;
22515;SDS011;11424;48.860;9.624;2023-05-10T23:32:01;1.2;;;1.3;;
22515;SDS011;11424;48.860;9.624;2023-05-10T23:37:01;0.8;;;0.8;;
22515;SDS011;11424;48.860;9.624;2023-05-10T23:42:01;0.9;;;0.9;;
22515;SDS011;11424;48.860;9.624;2023-05-10T23:47:01;0.7;;;0.7;;
22515;SDS011;11424;48.860;9.624;2023-05-10T23:52:01;0.7;;;0.7;;
22515;SDS011;11424;48.860;9.624;2023-05-10T23:57:01;0.9;;;0.9;;
